WEATHER DATA

YESTERDAY
Time Temp. Dewp. Hum. Wind dir Wind speed Wind gust Bar. 1h Prec. 24h Prec.
00:21 6.7 5.6 93 310 4.4 8.3 1013.7 0.0000 0.0000
00:31 6.7 5.6 93 303 3.9 6.9 1013.7 0.0000 0.0000
00:41 6.7 5.8 94 307 5 10 1013.7 0.0000 0.0000
00:51 6.6 5.7 94 307 4.4 8.6 1013.7 0.0000 0.0000
01:01 6.6 5.7 94 303 3.3 7.2 1013.6 0.0000 0.0000
01:09 6.6 5.7 94 294 3.3 10.3 1013.6 0.0000 0.0000
01:19 6.6 5.7 94 310 3.9 6.1 1013.5 0.0000 0.0000
01:29 6.5 5.6 94 310 5 8.1 1013.3 0.0000 0.0000
01:39 6.5 5.6 94 308 4.2 6.4 1013.2 0.0000 0.0000
01:49 6.5 5.6 94 304 3.9 7.5 1013.2 0.0000 0.0000
01:59 6.5 5.6 94 307 3.3 5.8 1013.1 0.0000 0.0000
02:09 6.5 5.6 94 296 3.1 5.3 1013.1 0.0000 0.0000
02:19 6.5 5.8 95 290 3.3 6.1 1013 0.0000 0.0000
02:29 6.5 5.8 95 288 3.1 6.9 1012.9 0.0000 0.0000
02:39 6.5 5.8 95 292 3.3 6.9 1012.9 0.0000 0.0000
02:49 6.5 5.8 95 299 3.3 7.2 1012.9 0.1010 0.1000
03:00 6.5 5.6 94 297 3.9 8.1 1012.9 0.1010 0.1000
03:10 6.5 5.6 94 301 3.3 6.9 1012.9 0.1010 0.1000
03:19 6.5 5.6 94 301 3.9 6.4 1012.8 0.1010 0.1000
03:30 6.5 5.6 94 308 3.1 6.9 1012.8 0.1010 0.1000
03:40 6.5 5.5 93 304 4.2 8.6 1012.6 0.0000 0.1000
03:50 6.5 5.3 92 306 4.2 6.9 1012.6 0.0000 0.1000
03:59 6.5 5.5 93 299 2.8 5.3 1012.5 0.0000 0.1000
04:10 6.5 5.5 93 299 3.3 6.4 1012.4 0.0000 0.1000
04:20 6.5 5.5 93 301 2.8 5 1012.5 0.0000 0.1000
04:30 6.6 5.7 94 296 3.3 6.9 1012.5 0.0000 0.1000
04:40 6.6 5.7 94 290 2.8 6.1 1012.4 0.0000 0.1000
04:50 6.5 5.8 95 298 3.3 6.4 1012.4 0.0000 0.1000
05:00 6.6 5.9 95 312 4.2 8.1 1012.4 0.0000 0.1000
05:10 6.6 5.9 95 320 4.2 9.2 1012.5 0.0000 0.1000
05:20 6.6 5.9 95 322 4.2 7.2 1012.6 0.0000 0.1000
05:30 6.6 5.7 94 324 4.2 6.9 1012.6 0.0000 0.1000
05:40 6.6 5.7 94 324 3.1 5.3 1012.6 0.0000 0.1000
05:51 6.6 5.7 94 315 3.1 6.4 1012.7 0.0000 0.1000
06:01 6.6 5.7 94 316 3.1 5.3 1012.6 0.0000 0.1000
06:10 6.6 5.7 94 317 2.8 5 1012.4 0.0000 0.1000
06:20 6.6 5.7 94 319 2.8 4.4 1012.4 0.0000 0.1000
06:31 6.6 5.7 94 319 2.2 4.2 1012.5 0.0000 0.1000
06:41 6.6 5.7 94 315 3.1 5.3 1012.4 0.0000 0.1000
06:51 6.6 5.6 93 312 2.8 5 1012.4 0.0000 0.1000
07:01 6.6 5.6 93 308 2.8 5 1012.3 0.0000 0.1000
07:11 6.6 5.7 94 297 2.8 4.4 1012.2 0.0000 0.1000
07:21 6.6 5.7 94 286 1.9 3.9 1012.3 0.0000 0.1000
07:31 6.6 5.7 94 295 1.9 4.2 1012.1 0.0000 0.1000
07:41 6.5 5.6 94 277 2.2 4.4 1012.2 0.0000 0.1000
07:51 6.5 5.6 94 270 2.8 4.2 1012.2 0.0000 0.1000
08:01 6.5 5.8 95 270 2.8 5.8 1012.1 0.0000 0.1000
08:11 6.6 5.9 95 277 2.8 6.1 1012 0.0000 0.1000
08:22 6.6 5.9 95 286 2.2 4.4 1012.2 0.0000 0.1000
08:32 6.6 5.9 95 288 2.8 5.8 1012.3 0.0000 0.1000
08:41 6.6 5.9 95 275 3.3 6.1 1012.2 0.0000 0.1000
08:52 6.6 5.9 95 266 2.8 5 1012.2 0.0000 0.1000
09:02 6.6 5.9 95 260 3.3 5.3 1012.3 0.0000 0.1000
09:12 6.6 6 96 267 3.1 5.3 1012.3 0.0000 0.1000
09:22 6.6 6 96 262 4.2 8.1 1012.3 0.0000 0.1000
09:33 6.7 6.1 96 258 3.9 6.4 1012.3 0.0000 0.1000
09:42 6.6 6 96 263 4.4 7.2 1012.3 0.0000 0.1000
09:52 6.6 6.2 97 261 4.4 8.1 1012.3 0.0000 0.1000
10:03 6.7 6.3 97 277 4.4 8.3 1012.2 0.0000 0.1000
10:13 6.6 6.2 97 267 5.3 9.4 1012.3 0.1010 0.2000
10:23 6.7 6.3 97 268 4.4 8.3 1012.2 0.1010 0.2000
10:32 6.7 6.3 97 267 4.2 8.1 1012.3 0.1010 0.2000
10:43 6.7 6.1 96 265 5.8 11.4 1012.2 0.1010 0.2000
10:53 6.6 6.2 97 268 5 9.2 1012.2 0.1010 0.2000
11:03 6.6 6.2 97 261 5 8.3 1012.2 0.1010 0.2000
11:13 6.6 6.2 97 270 5 9.4 1012.1 0.0000 0.2000
11:23 6.6 6 96 270 5.3 8.6 1012 0.0000 0.2000
11:33 6.6 6 96 268 5 7.5 1012 0.0000 0.2000
11:41 6.6 6 96 265 5.8 11.4 1011.9 0.0000 0.2000
11:51 6.6 5.9 95 265 5.8 10.3 1011.8 0.0000 0.2000
11:55 6.6 5.9 95 263 6.4 13.6 1011.8 0.0000 0.2000
12:06 6.6 5.9 95 261 7.2 11.4 1011.7 0.0000 0.2000
12:15 6.6 5.7 94 261 6.9 12.2 1011.6 0.0000 0.2000
12:25 6.6 5.7 94 265 5.3 8.6 1011.4 0.0000 0.2000
12:36 6.6 5.7 94 255 5.3 8.3 1011.2 0.0000 0.2000
12:46 6.4 5.5 94 256 6.1 10.3 1011 0.0000 0.2000
12:56 6.4 5.4 93 251 5.8 11.4 1010.9 0.0000 0.2000
13:05 6.3 5.3 93 250 6.1 11.4 1010.9 0.0000 0.2000
13:16 6.2 5.2 93 255 5 8.3 1010.9 0.0000 0.2000
13:26 6.2 5.2 93 257 4.4 7.5 1011 0.0000 0.2000
13:36 6.2 5.2 93 264 5.3 9.4 1011 0.0000 0.2000
13:46 6.2 5.2 93 260 5.8 9.4 1011 0.0000 0.2000
13:57 6.2 5.2 93 262 6.1 11.1 1011 0.0000 0.2000
14:07 6.2 5.3 94 261 6.1 10.3 1010.9 0.0000 0.2000
14:16 6.2 5.2 93 257 5.3 10.3 1010.8 0.0000 0.2000
14:27 6.1 5.2 94 261 5.3 11.4 1010.7 0.0000 0.2000
14:37 6.1 5.2 94 263 5.8 8.3 1010.6 0.0000 0.2000
14:47 6.1 5.4 95 263 6.1 12.5 1010.5 0.0000 0.2000
14:57 6.1 5.2 94 266 6.1 11.4 1010.5 0.0000 0.2000
15:07 6.1 5.4 95 267 5.8 9.4 1010.4 0.0000 0.2000
15:17 6.1 5.4 95 270 5.3 10.3 1010.3 0.0000 0.2000
15:27 6 5.3 95 260 6.4 10.3 1010.1 0.0000 0.2000
15:37 6 5.3 95 257 6.1 11.7 1010.1 0.0000 0.2000
15:48 5.9 5.2 95 258 6.4 10.6 1010.1 0.0000 0.2000
15:58 5.9 5.3 96 256 5.3 10.3 1009.9 0.0000 0.2000
16:08 5.8 5.2 96 261 5.3 10.3 1009.8 0.0000 0.2000
16:18 5.8 5.2 96 260 5.3 10 1009.8 0.0000 0.2000
16:33 5.7 5.1 96 257 6.1 11.1 1009.8 0.0000 0.2000
16:43 5.7 5.1 96 267 5 8.3 1009.7 0.0000 0.2000
16:54 5.8 5.2 96 258 5.8 10 1009.6 0.0000 0.2000
17:03 5.7 5.1 96 257 5.3 8.6 1009.5 0.0000 0.2000
17:13 5.7 5.1 96 257 5.3 10.3 1009.6 0.0000 0.2000
17:23 5.7 5.3 97 264 6.1 10.3 1009.4 0.0000 0.2000
17:34 5.7 5.3 97 259 5 8.1 1009.3 0.0000 0.2000
17:41 5.8 5.4 97 260 4.4 11.7 1009.1 0.0000 0.2000
17:51 5.8 5.4 97 257 4.4 7.2 1009.1 0.0000 0.2000
18:01 5.8 5.4 97 262 5 8.6 1009.2 0.0000 0.2000
18:11 5.8 5.4 97 256 5 8.6 1009.3 0.0000 0.2000
18:22 5.8 5.4 97 256 4.4 8.3 1009.1 0.0000 0.2000
18:31 5.8 5.4 97 263 5.3 9.2 1009.1 0.0000 0.2000
18:39 5.8 5.4 97 263 4.4 12.2 1009.1 0.0000 0.2000
18:48 5.8 5.4 97 261 4.4 9.2 1009.1 0.0000 0.2000
18:58 5.8 5.4 97 262 5 8.3 1009.1 0.0000 0.2000
19:08 5.8 5.4 97 262 5.3 8.6 1008.9 0.1010 0.3000
19:19 5.8 5.4 97 263 4.4 8.6 1008.7 0.1010 0.3000
19:29 5.8 5.4 97 263 5 9.2 1008.6 0.1010 0.3000
19:37 5.8 5.4 97 263 5 10.3 1008.7 0.1010 0.3000
19:47 5.8 5.4 97 264 4.4 7.2 1008.7 0.1010 0.3000
19:57 5.8 5.4 97 263 5 8.3 1008.5 0.0000 0.3000
20:07 5.8 5.4 97 263 4.4 11.4 1008.5 0.0000 0.3000
20:18 5.9 5.6 98 258 4.4 8.1 1008.4 0.0000 0.3000
20:27 6 5.6 97 261 5 9.2 1008.3 0.0000 0.3000
20:37 6 5.6 97 255 4.2 6.9 1008.3 0.0000 0.3000
20:48 5.9 5.5 97 257 4.4 8.3 1008.2 0.0000 0.3000
20:57 5.9 5.5 97 253 4.2 7.5 1008.1 0.0000 0.3000
21:07 5.9 5.6 98 253 3.9 7.2 1008.1 0.0000 0.3000
21:18 5.8 5.5 98 245 3.9 6.1 1008 0.0000 0.3000
21:28 5.8 5.5 98 247 3.9 5.8 1008 0.0000 0.3000
21:38 5.8 5.5 98 247 5 10.3 1007.9 0.1010 0.4000
21:48 5.8 5.5 98 242 4.2 6.9 1007.7 0.1010 0.4000
21:59 5.8 5.5 98 248 4.4 7.5 1007.6 0.1010 0.4000
22:09 5.8 5.5 98 247 5.3 9.2 1007.5 0.1010 0.4000
22:18 5.8 5.5 98 244 5 8.6 1007.3 0.1010 0.4000
22:29 5.8 5.5 98 246 4.4 7.2 1007.3 0.0000 0.4000
22:39 5.8 5.5 98 243 5.3 9.4 1007.1 0.0000 0.4000
22:49 5.8 5.5 98 244 5 8.3 1007.1 0.0000 0.4000
22:58 5.8 5.5 98 250 4.4 7.5 1007.1 0.0000 0.4000
23:09 5.9 5.6 98 243 5.8 9.2 1006.8 0.0000 0.4000
23:19 5.9 5.6 98 242 5.8 10 1006.7 0.0000 0.4000
23:29 5.9 5.6 98 241 6.1 10 1006.5 0.0000 0.4000
23:39 5.8 5.5 98 244 6.1 11.1 1006.3 0.0000 0.4000
23:49 5.8 5.5 98 240 7.2 12.2 1006.2 0.0000 0.4000

DAY STATISTIC

2020-01-26
TEMPERATURE
AVERAGE
6.3
HIGH
6.7
00:21
LOW
5.7
16:33
PRESSURE
AVERAGE
1010.9
HIGH
1013.7
00:21
LOW
1006.2
23:49
DEWPOINT
AVERAGE
5.6
HIGH
6.3
10:03
LOW
5.1
16:33
HUMIDITY
AVERAGE
95
HIGH
98
20:18
LOW
92
03:50
WIND SPEED
AVERAGE
4.5
HIGH
7.2
12:06
WIND GUST
AVERAGE
8.2
HIGH
13.6
11:55
WIND DIRECTION
PREVAILING
W
62.7%
N
0.0
NE
0.0
E
0.0
SE
0.0
S
0.0
SW
9.9
W
62.7
NW
27.5
PRECIPITATION
RAIN HOUR
0.1
RAIN DAY
0.4
TEMPERATURE (°C)
LOW
5.7
HIGH
6.7
AVERAGE
6.3
PRESSURE (hpa)
LOW
1006.2
HIGH
1013.7
AVERAGE
1010.9
DEVICE